sensor_id;sensor_type;location;lat;lon;timestamp;P1;durP1;ratioP1;P2;durP2;ratioP2
58240;SDS011;45058;55.772;38.224;2022-07-21T00:01:45;3.08;;;2.03;;
58240;SDS011;45058;55.772;38.224;2022-07-21T00:04:12;4.57;;;2.17;;
58240;SDS011;45058;55.772;38.224;2022-07-21T00:06:38;4.40;;;2.25;;
58240;SDS011;45058;55.772;38.224;2022-07-21T00:09:04;3.60;;;2.50;;
58240;SDS011;45058;55.772;38.224;2022-07-21T00:11:30;3.50;;;2.60;;
58240;SDS011;45058;55.772;38.224;2022-07-21T00:13:56;3.97;;;2.45;;
58240;SDS011;45058;55.772;38.224;2022-07-21T00:16:24;3.55;;;2.42;;
58240;SDS011;45058;55.772;38.224;2022-07-21T00:18:50;5.00;;;2.75;;
58240;SDS011;45058;55.772;38.224;2022-07-21T00:21:16;2.92;;;2.20;;
58240;SDS011;45058;55.772;38.224;2022-07-21T00:23:42;3.65;;;2.55;;
58240;SDS011;45058;55.772;38.224;2022-07-21T00:26:08;3.50;;;2.75;;
58240;SDS011;45058;55.772;38.224;2022-07-21T00:28:34;5.05;;;3.10;;
58240;SDS011;45058;55.772;38.224;2022-07-21T00:31:00;4.68;;;2.40;;
58240;SDS011;45058;55.772;38.224;2022-07-21T00:33:26;4.05;;;2.45;;
58240;SDS011;45058;55.772;38.224;2022-07-21T00:35:52;3.47;;;2.67;;
58240;SDS011;45058;55.772;38.224;2022-07-21T00:38:19;5.80;;;2.80;;
58240;SDS011;45058;55.772;38.224;2022-07-21T00:40:45;3.53;;;2.75;;
58240;SDS011;45058;55.772;38.224;2022-07-21T00:43:11;4.75;;;3.38;;
58240;SDS011;45058;55.772;38.224;2022-07-21T00:45:37;4.03;;;3.08;;
58240;SDS011;45058;55.772;38.224;2022-07-21T00:48:03;6.40;;;3.75;;
58240;SDS011;45058;55.772;38.224;2022-07-21T00:50:30;7.93;;;3.63;;
58240;SDS011;45058;55.772;38.224;2022-07-21T00:52:57;8.57;;;3.47;;
58240;SDS011;45058;55.772;38.224;2022-07-21T00:55:24;5.68;;;3.60;;
58240;SDS011;45058;55.772;38.224;2022-07-21T00:57:51;4.82;;;3.65;;
58240;SDS011;45058;55.772;38.224;2022-07-21T01:00:19;6.30;;;3.85;;
58240;SDS011;45058;55.772;38.224;2022-07-21T01:02:47;6.85;;;3.25;;
58240;SDS011;45058;55.772;38.224;2022-07-21T01:05:13;5.30;;;2.95;;
58240;SDS011;45058;55.772;38.224;2022-07-21T01:07:43;7.22;;;3.65;;
58240;SDS011;45058;55.772;38.224;2022-07-21T01:10:14;5.72;;;3.30;;
58240;SDS011;45058;55.772;38.224;2022-07-21T01:12:41;6.35;;;3.30;;
58240;SDS011;45058;55.772;38.224;2022-07-21T01:15:08;9.27;;;3.65;;
58240;SDS011;45058;55.772;38.224;2022-07-21T01:17:35;5.53;;;3.42;;
58240;SDS011;45058;55.772;38.224;2022-07-21T01:20:03;6.60;;;3.45;;
58240;SDS011;45058;55.772;38.224;2022-07-21T01:22:31;5.90;;;3.35;;
58240;SDS011;45058;55.772;38.224;2022-07-21T01:24:58;6.32;;;3.60;;
58240;SDS011;45058;55.772;38.224;2022-07-21T01:27:27;3.80;;;3.25;;
58240;SDS011;45058;55.772;38.224;2022-07-21T01:29:53;4.88;;;3.00;;
58240;SDS011;45058;55.772;38.224;2022-07-21T01:32:20;4.35;;;3.25;;
58240;SDS011;45058;55.772;38.224;2022-07-21T01:34:46;4.65;;;2.75;;
58240;SDS011;45058;55.772;38.224;2022-07-21T01:37:12;3.17;;;2.85;;
58240;SDS011;45058;55.772;38.224;2022-07-21T01:39:39;3.90;;;2.90;;
58240;SDS011;45058;55.772;38.224;2022-07-21T01:42:23;4.85;;;3.10;;
58240;SDS011;45058;55.772;38.224;2022-07-21T01:44:49;3.40;;;2.33;;
58240;SDS011;45058;55.772;38.224;2022-07-21T01:47:16;4.30;;;2.40;;
58240;SDS011;45058;55.772;38.224;2022-07-21T01:49:43;2.25;;;1.92;;
58240;SDS011;45058;55.772;38.224;2022-07-21T01:52:10;3.90;;;2.53;;
58240;SDS011;45058;55.772;38.224;2022-07-21T01:54:36;2.97;;;2.30;;
58240;SDS011;45058;55.772;38.224;2022-07-21T01:57:02;4.00;;;2.28;;
58240;SDS011;45058;55.772;38.224;2022-07-21T01:59:28;3.83;;;2.40;;
58240;SDS011;45058;55.772;38.224;2022-07-21T02:01:54;3.17;;;2.33;;
58240;SDS011;45058;55.772;38.224;2022-07-21T02:04:20;4.43;;;2.15;;
58240;SDS011;45058;55.772;38.224;2022-07-21T02:06:46;3.40;;;2.45;;
58240;SDS011;45058;55.772;38.224;2022-07-21T02:09:12;7.47;;;2.10;;
58240;SDS011;45058;55.772;38.224;2022-07-21T02:11:39;3.30;;;2.17;;
58240;SDS011;45058;55.772;38.224;2022-07-21T02:14:05;2.30;;;1.92;;
58240;SDS011;45058;55.772;38.224;2022-07-21T02:16:31;5.43;;;2.40;;
58240;SDS011;45058;55.772;38.224;2022-07-21T02:18:57;5.85;;;2.90;;
58240;SDS011;45058;55.772;38.224;2022-07-21T02:21:24;5.60;;;2.90;;
58240;SDS011;45058;55.772;38.224;2022-07-21T02:23:50;5.47;;;3.20;;
58240;SDS011;45058;55.772;38.224;2022-07-21T02:26:16;3.72;;;2.53;;
58240;SDS011;45058;55.772;38.224;2022-07-21T02:28:42;5.07;;;2.30;;
58240;SDS011;45058;55.772;38.224;2022-07-21T02:31:08;6.47;;;2.50;;
58240;SDS011;45058;55.772;38.224;2022-07-21T02:33:35;3.70;;;1.90;;
58240;SDS011;45058;55.772;38.224;2022-07-21T02:36:01;2.90;;;2.10;;
58240;SDS011;45058;55.772;38.224;2022-07-21T02:38:28;2.33;;;1.73;;
58240;SDS011;45058;55.772;38.224;2022-07-21T02:40:54;2.72;;;1.88;;
58240;SDS011;45058;55.772;38.224;2022-07-21T02:43:20;2.97;;;1.92;;
58240;SDS011;45058;55.772;38.224;2022-07-21T02:45:46;3.30;;;1.90;;
58240;SDS011;45058;55.772;38.224;2022-07-21T02:48:12;3.63;;;1.88;;
58240;SDS011;45058;55.772;38.224;2022-07-21T02:50:40;3.13;;;1.75;;
58240;SDS011;45058;55.772;38.224;2022-07-21T02:53:15;3.13;;;1.88;;
58240;SDS011;45058;55.772;38.224;2022-07-21T02:55:46;4.45;;;2.03;;
58240;SDS011;45058;55.772;38.224;2022-07-21T02:58:16;4.10;;;1.88;;
58240;SDS011;45058;55.772;38.224;2022-07-21T03:00:45;3.58;;;1.65;;
58240;SDS011;45058;55.772;38.224;2022-07-21T03:03:15;4.40;;;1.80;;
58240;SDS011;45058;55.772;38.224;2022-07-21T03:05:41;4.22;;;1.60;;
58240;SDS011;45058;55.772;38.224;2022-07-21T03:08:08;1.95;;;1.65;;
58240;SDS011;45058;55.772;38.224;2022-07-21T03:10:35;1.90;;;1.35;;
58240;SDS011;45058;55.772;38.224;2022-07-21T03:13:01;1.50;;;1.35;;
58240;SDS011;45058;55.772;38.224;2022-07-21T03:15:28;2.22;;;1.40;;
58240;SDS011;45058;55.772;38.224;2022-07-21T03:17:54;1.70;;;1.15;;
58240;SDS011;45058;55.772;38.224;2022-07-21T03:20:25;2.05;;;1.40;;
58240;SDS011;45058;55.772;38.224;2022-07-21T03:22:52;2.67;;;1.75;;
58240;SDS011;45058;55.772;38.224;2022-07-21T03:25:18;3.55;;;1.35;;
58240;SDS011;45058;55.772;38.224;2022-07-21T03:27:45;1.98;;;1.40;;
58240;SDS011;45058;55.772;38.224;2022-07-21T03:30:11;4.85;;;1.80;;
58240;SDS011;45058;55.772;38.224;2022-07-21T03:32:38;3.10;;;1.60;;
58240;SDS011;45058;55.772;38.224;2022-07-21T03:35:05;2.88;;;1.52;;
58240;SDS011;45058;55.772;38.224;2022-07-21T03:37:32;1.73;;;1.17;;
58240;SDS011;45058;55.772;38.224;2022-07-21T03:39:58;1.83;;;1.08;;
58240;SDS011;45058;55.772;38.224;2022-07-21T03:42:24;2.30;;;1.20;;
58240;SDS011;45058;55.772;38.224;2022-07-21T03:44:50;3.22;;;1.30;;
58240;SDS011;45058;55.772;38.224;2022-07-21T03:47:16;3.08;;;1.67;;
58240;SDS011;45058;55.772;38.224;2022-07-21T03:49:42;2.25;;;1.58;;
58240;SDS011;45058;55.772;38.224;2022-07-21T03:52:08;2.20;;;1.65;;
58240;SDS011;45058;55.772;38.224;2022-07-21T03:54:34;2.60;;;1.70;;
58240;SDS011;45058;55.772;38.224;2022-07-21T03:57:00;2.55;;;1.52;;
58240;SDS011;45058;55.772;38.224;2022-07-21T03:59:26;5.55;;;1.50;;
58240;SDS011;45058;55.772;38.224;2022-07-21T04:01:52;4.03;;;1.30;;
58240;SDS011;45058;55.772;38.224;2022-07-21T04:04:18;3.50;;;1.25;;
58240;SDS011;45058;55.772;38.224;2022-07-21T04:06:44;3.80;;;1.33;;
58240;SDS011;45058;55.772;38.224;2022-07-21T04:09:11;2.55;;;1.40;;
58240;SDS011;45058;55.772;38.224;2022-07-21T04:11:37;6.15;;;2.28;;
58240;SDS011;45058;55.772;38.224;2022-07-21T04:14:03;6.75;;;2.50;;
58240;SDS011;45058;55.772;38.224;2022-07-21T04:16:29;6.35;;;2.30;;
58240;SDS011;45058;55.772;38.224;2022-07-21T04:18:55;2.97;;;1.17;;
58240;SDS011;45058;55.772;38.224;2022-07-21T04:21:21;4.47;;;1.88;;
58240;SDS011;45058;55.772;38.224;2022-07-21T04:23:47;4.63;;;1.65;;
58240;SDS011;45058;55.772;38.224;2022-07-21T04:26:13;3.53;;;1.83;;
58240;SDS011;45058;55.772;38.224;2022-07-21T04:28:39;5.03;;;1.58;;
58240;SDS011;45058;55.772;38.224;2022-07-21T04:31:05;3.95;;;1.63;;
58240;SDS011;45058;55.772;38.224;2022-07-21T04:33:31;3.35;;;1.50;;
58240;SDS011;45058;55.772;38.224;2022-07-21T04:35:57;7.13;;;1.73;;
58240;SDS011;45058;55.772;38.224;2022-07-21T04:38:23;3.53;;;1.30;;
58240;SDS011;45058;55.772;38.224;2022-07-21T04:40:49;2.55;;;1.25;;
58240;SDS011;45058;55.772;38.224;2022-07-21T04:43:15;1.90;;;1.10;;
58240;SDS011;45058;55.772;38.224;2022-07-21T04:45:41;3.17;;;1.33;;
58240;SDS011;45058;55.772;38.224;2022-07-21T04:48:07;9.95;;;1.55;;
58240;SDS011;45058;55.772;38.224;2022-07-21T04:50:34;6.85;;;0.90;;
58240;SDS011;45058;55.772;38.224;2022-07-21T04:53:00;3.63;;;1.02;;
58240;SDS011;45058;55.772;38.224;2022-07-21T04:55:26;3.78;;;1.15;;
58240;SDS011;45058;55.772;38.224;2022-07-21T04:57:52;2.90;;;1.08;;
58240;SDS011;45058;55.772;38.224;2022-07-21T05:00:20;1.48;;;0.60;;
58240;SDS011;45058;55.772;38.224;2022-07-21T05:02:47;0.75;;;0.50;;
58240;SDS011;45058;55.772;38.224;2022-07-21T05:05:14;1.60;;;0.50;;
58240;SDS011;45058;55.772;38.224;2022-07-21T05:07:40;2.15;;;1.10;;
58240;SDS011;45058;55.772;38.224;2022-07-21T05:10:10;1.90;;;1.10;;
58240;SDS011;45058;55.772;38.224;2022-07-21T05:12:38;2.03;;;1.20;;
58240;SDS011;45058;55.772;38.224;2022-07-21T05:15:05;1.42;;;0.85;;
58240;SDS011;45058;55.772;38.224;2022-07-21T05:17:32;1.42;;;0.82;;
58240;SDS011;45058;55.772;38.224;2022-07-21T05:19:58;1.00;;;0.80;;
58240;SDS011;45058;55.772;38.224;2022-07-21T05:22:24;1.42;;;0.70;;
58240;SDS011;45058;55.772;38.224;2022-07-21T05:24:51;2.47;;;0.88;;
58240;SDS011;45058;55.772;38.224;2022-07-21T05:27:17;1.60;;;1.00;;
58240;SDS011;45058;55.772;38.224;2022-07-21T05:29:43;1.83;;;0.90;;
58240;SDS011;45058;55.772;38.224;2022-07-21T05:32:09;1.77;;;1.02;;
58240;SDS011;45058;55.772;38.224;2022-07-21T05:34:35;1.95;;;1.02;;
58240;SDS011;45058;55.772;38.224;2022-07-21T05:37:01;2.20;;;1.90;;
58240;SDS011;45058;55.772;38.224;2022-07-21T05:39:27;5.32;;;4.55;;
58240;SDS011;45058;55.772;38.224;2022-07-21T05:41:54;7.97;;;6.78;;
58240;SDS011;45058;55.772;38.224;2022-07-21T05:44:20;7.25;;;6.28;;
58240;SDS011;45058;55.772;38.224;2022-07-21T05:46:46;9.95;;;6.07;;
58240;SDS011;45058;55.772;38.224;2022-07-21T05:49:12;6.50;;;5.50;;
58240;SDS011;45058;55.772;38.224;2022-07-21T05:51:38;6.57;;;4.50;;
58240;SDS011;45058;55.772;38.224;2022-07-21T05:54:04;7.45;;;4.72;;
58240;SDS011;45058;55.772;38.224;2022-07-21T05:56:30;6.35;;;4.55;;
58240;SDS011;45058;55.772;38.224;2022-07-21T05:58:56;5.72;;;4.55;;
58240;SDS011;45058;55.772;38.224;2022-07-21T06:01:22;7.75;;;4.18;;
58240;SDS011;45058;55.772;38.224;2022-07-21T06:03:49;8.95;;;3.78;;
58240;SDS011;45058;55.772;38.224;2022-07-21T06:06:16;5.65;;;3.38;;
58240;SDS011;45058;55.772;38.224;2022-07-21T06:08:43;17.92;;;3.20;;
58240;SDS011;45058;55.772;38.224;2022-07-21T06:11:11;5.43;;;2.80;;
58240;SDS011;45058;55.772;38.224;2022-07-21T06:13:39;4.10;;;2.45;;
58240;SDS011;45058;55.772;38.224;2022-07-21T06:16:06;3.53;;;2.97;;
58240;SDS011;45058;55.772;38.224;2022-07-21T06:18:33;5.15;;;3.17;;
58240;SDS011;45058;55.772;38.224;2022-07-21T06:20:59;7.35;;;3.08;;
58240;SDS011;45058;55.772;38.224;2022-07-21T06:23:25;4.30;;;2.97;;
58240;SDS011;45058;55.772;38.224;2022-07-21T06:25:52;4.50;;;3.35;;
58240;SDS011;45058;55.772;38.224;2022-07-21T06:28:18;8.02;;;3.55;;
58240;SDS011;45058;55.772;38.224;2022-07-21T06:30:45;6.30;;;3.00;;
58240;SDS011;45058;55.772;38.224;2022-07-21T06:33:11;3.65;;;2.75;;
58240;SDS011;45058;55.772;38.224;2022-07-21T06:35:37;3.67;;;2.58;;
58240;SDS011;45058;55.772;38.224;2022-07-21T06:38:03;3.80;;;2.70;;
58240;SDS011;45058;55.772;38.224;2022-07-21T06:40:30;3.38;;;2.13;;
58240;SDS011;45058;55.772;38.224;2022-07-21T06:42:56;3.92;;;2.30;;
58240;SDS011;45058;55.772;38.224;2022-07-21T06:45:23;2.30;;;2.10;;
58240;SDS011;45058;55.772;38.224;2022-07-21T06:47:49;4.25;;;1.90;;
58240;SDS011;45058;55.772;38.224;2022-07-21T06:50:16;2.70;;;1.63;;
58240;SDS011;45058;55.772;38.224;2022-07-21T06:52:42;2.50;;;1.63;;
58240;SDS011;45058;55.772;38.224;2022-07-21T06:55:08;4.93;;;2.17;;
58240;SDS011;45058;55.772;38.224;2022-07-21T06:57:34;3.63;;;1.83;;
58240;SDS011;45058;55.772;38.224;2022-07-21T07:00:03;4.93;;;2.00;;
58240;SDS011;45058;55.772;38.224;2022-07-21T07:02:30;3.45;;;2.50;;
58240;SDS011;45058;55.772;38.224;2022-07-21T07:04:56;3.33;;;2.03;;
58240;SDS011;45058;55.772;38.224;2022-07-21T07:07:22;5.88;;;1.90;;
58240;SDS011;45058;55.772;38.224;2022-07-21T07:09:48;3.15;;;2.25;;
58240;SDS011;45058;55.772;38.224;2022-07-21T07:12:14;3.83;;;2.25;;
58240;SDS011;45058;55.772;38.224;2022-07-21T07:14:40;5.28;;;2.40;;
58240;SDS011;45058;55.772;38.224;2022-07-21T07:17:06;6.32;;;2.90;;
58240;SDS011;45058;55.772;38.224;2022-07-21T07:19:32;4.75;;;2.75;;
58240;SDS011;45058;55.772;38.224;2022-07-21T07:21:58;4.78;;;2.60;;
58240;SDS011;45058;55.772;38.224;2022-07-21T07:24:25;4.90;;;3.10;;
58240;SDS011;45058;55.772;38.224;2022-07-21T07:26:51;11.32;;;4.03;;
58240;SDS011;45058;55.772;38.224;2022-07-21T07:29:22;6.88;;;4.10;;
58240;SDS011;45058;55.772;38.224;2022-07-21T07:31:48;7.97;;;4.65;;
58240;SDS011;45058;55.772;38.224;2022-07-21T07:34:14;4.55;;;3.42;;
58240;SDS011;45058;55.772;38.224;2022-07-21T07:36:40;7.82;;;4.30;;
58240;SDS011;45058;55.772;38.224;2022-07-21T07:39:06;4.32;;;2.72;;
58240;SDS011;45058;55.772;38.224;2022-07-21T07:41:32;6.10;;;3.60;;
58240;SDS011;45058;55.772;38.224;2022-07-21T07:43:58;4.57;;;3.10;;
58240;SDS011;45058;55.772;38.224;2022-07-21T07:46:25;2.70;;;2.17;;
58240;SDS011;45058;55.772;38.224;2022-07-21T07:48:52;3.97;;;2.30;;
58240;SDS011;45058;55.772;38.224;2022-07-21T07:51:18;2.20;;;1.67;;
58240;SDS011;45058;55.772;38.224;2022-07-21T07:53:44;1.60;;;1.27;;
58240;SDS011;45058;55.772;38.224;2022-07-21T07:56:10;2.10;;;1.17;;
58240;SDS011;45058;55.772;38.224;2022-07-21T07:58:36;2.25;;;1.17;;
58240;SDS011;45058;55.772;38.224;2022-07-21T08:01:03;1.52;;;0.90;;
58240;SDS011;45058;55.772;38.224;2022-07-21T08:03:30;3.28;;;1.38;;
58240;SDS011;45058;55.772;38.224;2022-07-21T08:05:57;2.25;;;0.90;;
58240;SDS011;45058;55.772;38.224;2022-07-21T08:08:29;1.90;;;1.20;;
58240;SDS011;45058;55.772;38.224;2022-07-21T08:10:56;2.15;;;1.38;;
58240;SDS011;45058;55.772;38.224;2022-07-21T08:13:22;6.78;;;2.00;;
58240;SDS011;45058;55.772;38.224;2022-07-21T08:15:49;8.32;;;1.98;;
58240;SDS011;45058;55.772;38.224;2022-07-21T08:18:15;6.50;;;2.10;;
58240;SDS011;45058;55.772;38.224;2022-07-21T08:20:42;3.35;;;1.98;;
58240;SDS011;45058;55.772;38.224;2022-07-21T08:23:09;3.60;;;1.83;;
58240;SDS011;45058;55.772;38.224;2022-07-21T08:25:35;2.65;;;1.98;;
58240;SDS011;45058;55.772;38.224;2022-07-21T08:28:01;2.72;;;1.20;;
58240;SDS011;45058;55.772;38.224;2022-07-21T08:30:27;6.25;;;1.80;;
58240;SDS011;45058;55.772;38.224;2022-07-21T08:32:53;2.65;;;1.30;;
58240;SDS011;45058;55.772;38.224;2022-07-21T08:35:19;1.67;;;0.90;;
58240;SDS011;45058;55.772;38.224;2022-07-21T08:37:53;2.80;;;1.30;;
58240;SDS011;45058;55.772;38.224;2022-07-21T08:40:22;1.02;;;0.77;;
58240;SDS011;45058;55.772;38.224;2022-07-21T08:42:48;1.92;;;0.88;;
58240;SDS011;45058;55.772;38.224;2022-07-21T08:45:14;4.43;;;1.00;;
58240;SDS011;45058;55.772;38.224;2022-07-21T08:47:40;3.22;;;0.68;;
58240;SDS011;45058;55.772;38.224;2022-07-21T08:50:07;2.28;;;0.80;;
58240;SDS011;45058;55.772;38.224;2022-07-21T08:52:33;1.13;;;0.70;;
58240;SDS011;45058;55.772;38.224;2022-07-21T08:54:59;3.63;;;1.00;;
58240;SDS011;45058;55.772;38.224;2022-07-21T08:57:26;2.35;;;0.73;;
58240;SDS011;45058;55.772;38.224;2022-07-21T08:59:52;3.70;;;1.10;;
58240;SDS011;45058;55.772;38.224;2022-07-21T09:02:25;1.73;;;0.88;;
58240;SDS011;45058;55.772;38.224;2022-07-21T09:04:57;2.15;;;1.02;;
58240;SDS011;45058;55.772;38.224;2022-07-21T09:07:23;1.10;;;1.00;;
58240;SDS011;45058;55.772;38.224;2022-07-21T09:09:56;2.47;;;1.33;;
58240;SDS011;45058;55.772;38.224;2022-07-21T09:12:24;2.25;;;0.90;;
58240;SDS011;45058;55.772;38.224;2022-07-21T09:14:50;2.05;;;1.27;;
58240;SDS011;45058;55.772;38.224;2022-07-21T09:17:17;2.00;;;1.38;;
58240;SDS011;45058;55.772;38.224;2022-07-21T09:19:44;2.63;;;1.15;;
58240;SDS011;45058;55.772;38.224;2022-07-21T09:22:12;4.70;;;1.38;;
58240;SDS011;45058;55.772;38.224;2022-07-21T09:24:39;2.22;;;1.00;;
58240;SDS011;45058;55.772;38.224;2022-07-21T09:27:07;3.05;;;1.20;;
58240;SDS011;45058;55.772;38.224;2022-07-21T09:29:42;1.88;;;1.10;;
58240;SDS011;45058;55.772;38.224;2022-07-21T09:32:13;3.45;;;1.20;;
58240;SDS011;45058;55.772;38.224;2022-07-21T09:34:42;4.82;;;1.00;;
58240;SDS011;45058;55.772;38.224;2022-07-21T09:37:09;4.07;;;0.95;;
58240;SDS011;45058;55.772;38.224;2022-07-21T09:39:49;2.03;;;1.00;;
58240;SDS011;45058;55.772;38.224;2022-07-21T09:42:17;2.22;;;1.00;;
58240;SDS011;45058;55.772;38.224;2022-07-21T09:44:51;4.40;;;0.98;;
58240;SDS011;45058;55.772;38.224;2022-07-21T09:47:20;6.70;;;0.90;;
58240;SDS011;45058;55.772;38.224;2022-07-21T09:49:48;2.45;;;0.93;;
58240;SDS011;45058;55.772;38.224;2022-07-21T09:52:31;1.67;;;0.65;;
58240;SDS011;45058;55.772;38.224;2022-07-21T09:55:01;3.17;;;0.70;;
58240;SDS011;45058;55.772;38.224;2022-07-21T09:57:36;2.90;;;0.98;;
58240;SDS011;45058;55.772;38.224;2022-07-21T10:00:03;1.35;;;0.90;;
58240;SDS011;45058;55.772;38.224;2022-07-21T10:02:32;2.63;;;0.82;;
58240;SDS011;45058;55.772;38.224;2022-07-21T10:07:29;2.83;;;1.20;;
58240;SDS011;45058;55.772;38.224;2022-07-21T10:09:57;5.82;;;1.55;;
58240;SDS011;45058;55.772;38.224;2022-07-21T10:12:24;1.40;;;0.88;;
58240;SDS011;45058;55.772;38.224;2022-07-21T10:14:51;2.50;;;1.08;;
58240;SDS011;45058;55.772;38.224;2022-07-21T10:17:18;5.47;;;1.42;;
58240;SDS011;45058;55.772;38.224;2022-07-21T10:25:29;1.40;;;0.98;;
58240;SDS011;45058;55.772;38.224;2022-07-21T10:30:37;1.48;;;1.08;;
58240;SDS011;45058;55.772;38.224;2022-07-21T10:33:08;6.85;;;1.80;;
58240;SDS011;45058;55.772;38.224;2022-07-21T10:35:37;11.07;;;3.47;;
58240;SDS011;45058;55.772;38.224;2022-07-21T10:38:06;10.73;;;2.05;;
58240;SDS011;45058;55.772;38.224;2022-07-21T10:45:37;5.57;;;1.52;;
58240;SDS011;45058;55.772;38.224;2022-07-21T10:48:06;6.95;;;2.15;;
58240;SDS011;45058;55.772;38.224;2022-07-21T10:50:34;2.97;;;1.45;;
58240;SDS011;45058;55.772;38.224;2022-07-21T10:53:15;5.20;;;1.38;;
58240;SDS011;45058;55.772;38.224;2022-07-21T10:55:46;6.40;;;1.30;;
58240;SDS011;45058;55.772;38.224;2022-07-21T10:58:26;2.72;;;1.30;;
58240;SDS011;45058;55.772;38.224;2022-07-21T11:00:58;2.72;;;1.42;;
58240;SDS011;45058;55.772;38.224;2022-07-21T11:03:40;9.00;;;2.60;;
58240;SDS011;45058;55.772;38.224;2022-07-21T11:08:50;3.15;;;2.45;;
58240;SDS011;45058;55.772;38.224;2022-07-21T11:11:25;6.10;;;2.13;;
58240;SDS011;45058;55.772;38.224;2022-07-21T11:19:06;6.28;;;1.55;;
58240;SDS011;45058;55.772;38.224;2022-07-21T11:21:52;4.38;;;1.50;;
58240;SDS011;45058;55.772;38.224;2022-07-21T11:24:22;5.75;;;1.52;;
58240;SDS011;45058;55.772;38.224;2022-07-21T11:29:31;1.45;;;1.05;;
58240;SDS011;45058;55.772;38.224;2022-07-21T11:31:58;3.47;;;1.33;;
58240;SDS011;45058;55.772;38.224;2022-07-21T11:37:16;2.55;;;1.00;;
58240;SDS011;45058;55.772;38.224;2022-07-21T11:39:43;5.50;;;1.17;;
58240;SDS011;45058;55.772;38.224;2022-07-21T11:42:13;4.68;;;1.13;;
58240;SDS011;45058;55.772;38.224;2022-07-21T11:44:43;9.65;;;1.30;;
58240;SDS011;45058;55.772;38.224;2022-07-21T11:47:11;12.68;;;1.17;;
58240;SDS011;45058;55.772;38.224;2022-07-21T11:49:41;4.72;;;1.00;;
58240;SDS011;45058;55.772;38.224;2022-07-21T11:52:09;4.30;;;1.10;;
58240;SDS011;45058;55.772;38.224;2022-07-21T11:54:46;2.72;;;1.40;;
58240;SDS011;45058;55.772;38.224;2022-07-21T11:57:15;2.53;;;1.05;;
58240;SDS011;45058;55.772;38.224;2022-07-21T11:59:42;2.22;;;1.00;;
58240;SDS011;45058;55.772;38.224;2022-07-21T12:02:18;5.82;;;1.02;;
58240;SDS011;45058;55.772;38.224;2022-07-21T12:04:52;4.20;;;1.48;;
58240;SDS011;45058;55.772;38.224;2022-07-21T12:07:25;4.63;;;1.60;;
58240;SDS011;45058;55.772;38.224;2022-07-21T12:09:54;5.60;;;1.90;;
58240;SDS011;45058;55.772;38.224;2022-07-21T12:12:29;4.05;;;1.98;;
58240;SDS011;45058;55.772;38.224;2022-07-21T12:15:13;3.40;;;1.80;;
58240;SDS011;45058;55.772;38.224;2022-07-21T12:18:00;3.95;;;1.63;;
58240;SDS011;45058;55.772;38.224;2022-07-21T12:20:28;4.00;;;2.10;;
58240;SDS011;45058;55.772;38.224;2022-07-21T12:22:59;5.13;;;1.40;;
58240;SDS011;45058;55.772;38.224;2022-07-21T12:25:31;3.63;;;1.48;;
58240;SDS011;45058;55.772;38.224;2022-07-21T12:28:02;6.70;;;1.83;;
58240;SDS011;45058;55.772;38.224;2022-07-21T12:30:36;3.72;;;1.40;;
58240;SDS011;45058;55.772;38.224;2022-07-21T12:35:38;2.55;;;0.90;;
58240;SDS011;45058;55.772;38.224;2022-07-21T12:38:11;5.30;;;0.80;;
58240;SDS011;45058;55.772;38.224;2022-07-21T12:40:48;1.48;;;0.88;;
58240;SDS011;45058;55.772;38.224;2022-07-21T12:43:17;5.68;;;1.15;;
58240;SDS011;45058;55.772;38.224;2022-07-21T12:45:48;5.95;;;1.20;;
58240;SDS011;45058;55.772;38.224;2022-07-21T12:48:18;1.30;;;0.90;;
58240;SDS011;45058;55.772;38.224;2022-07-21T12:51:20;2.67;;;0.95;;
58240;SDS011;45058;55.772;38.224;2022-07-21T12:53:41;6.00;;;1.38;;
58240;SDS011;45058;55.772;38.224;2022-07-21T12:56:09;4.10;;;1.63;;
58240;SDS011;45058;55.772;38.224;2022-07-21T12:58:37;2.78;;;1.67;;
58240;SDS011;45058;55.772;38.224;2022-07-21T13:01:04;4.32;;;0.90;;
58240;SDS011;45058;55.772;38.224;2022-07-21T13:03:31;3.08;;;1.30;;
58240;SDS011;45058;55.772;38.224;2022-07-21T13:05:59;4.32;;;1.65;;
58240;SDS011;45058;55.772;38.224;2022-07-21T13:08:26;8.32;;;2.42;;
58240;SDS011;45058;55.772;38.224;2022-07-21T13:10:52;5.00;;;1.48;;
58240;SDS011;45058;55.772;38.224;2022-07-21T13:13:18;5.03;;;1.98;;
58240;SDS011;45058;55.772;38.224;2022-07-21T13:15:44;5.57;;;1.30;;
58240;SDS011;45058;55.772;38.224;2022-07-21T13:18:10;3.28;;;1.35;;
58240;SDS011;45058;55.772;38.224;2022-07-21T13:20:36;2.38;;;1.15;;
58240;SDS011;45058;55.772;38.224;2022-07-21T13:23:02;4.30;;;0.98;;
58240;SDS011;45058;55.772;38.224;2022-07-21T13:25:29;4.82;;;1.05;;
58240;SDS011;45058;55.772;38.224;2022-07-21T13:27:55;5.18;;;1.20;;
58240;SDS011;45058;55.772;38.224;2022-07-21T13:30:21;22.20;;;2.65;;
58240;SDS011;45058;55.772;38.224;2022-07-21T13:32:47;20.38;;;1.65;;
58240;SDS011;45058;55.772;38.224;2022-07-21T13:35:13;4.75;;;1.17;;
58240;SDS011;45058;55.772;38.224;2022-07-21T13:37:39;6.03;;;1.55;;
58240;SDS011;45058;55.772;38.224;2022-07-21T13:40:06;4.47;;;1.20;;
58240;SDS011;45058;55.772;38.224;2022-07-21T13:42:32;9.18;;;1.40;;
58240;SDS011;45058;55.772;38.224;2022-07-21T13:44:58;2.53;;;1.00;;
58240;SDS011;45058;55.772;38.224;2022-07-21T13:47:26;6.45;;;1.27;;
58240;SDS011;45058;55.772;38.224;2022-07-21T13:49:52;2.22;;;1.30;;
58240;SDS011;45058;55.772;38.224;2022-07-21T13:52:18;3.15;;;1.40;;
58240;SDS011;45058;55.772;38.224;2022-07-21T13:54:44;6.05;;;1.17;;
58240;SDS011;45058;55.772;38.224;2022-07-21T13:57:10;9.52;;;1.58;;
58240;SDS011;45058;55.772;38.224;2022-07-21T13:59:36;2.40;;;1.42;;
58240;SDS011;45058;55.772;38.224;2022-07-21T14:02:02;4.63;;;1.20;;
58240;SDS011;45058;55.772;38.224;2022-07-21T14:04:28;6.05;;;1.20;;
58240;SDS011;45058;55.772;38.224;2022-07-21T14:06:54;3.70;;;1.65;;
58240;SDS011;45058;55.772;38.224;2022-07-21T14:09:20;2.75;;;1.30;;
58240;SDS011;45058;55.772;38.224;2022-07-21T14:11:47;4.38;;;1.80;;
58240;SDS011;45058;55.772;38.224;2022-07-21T14:14:14;2.90;;;0.98;;
58240;SDS011;45058;55.772;38.224;2022-07-21T14:16:46;4.18;;;1.15;;
58240;SDS011;45058;55.772;38.224;2022-07-21T14:19:13;1.98;;;0.80;;
58240;SDS011;45058;55.772;38.224;2022-07-21T14:21:39;5.75;;;0.90;;
58240;SDS011;45058;55.772;38.224;2022-07-21T14:24:05;2.40;;;1.00;;
58240;SDS011;45058;55.772;38.224;2022-07-21T14:26:50;1.65;;;0.70;;
58240;SDS011;45058;55.772;38.224;2022-07-21T14:29:16;2.58;;;1.10;;
58240;SDS011;45058;55.772;38.224;2022-07-21T14:31:42;4.95;;;0.90;;
58240;SDS011;45058;55.772;38.224;2022-07-21T14:34:08;2.33;;;1.42;;
58240;SDS011;45058;55.772;38.224;2022-07-21T14:36:34;1.52;;;1.00;;
58240;SDS011;45058;55.772;38.224;2022-07-21T14:39:00;2.80;;;0.95;;
58240;SDS011;45058;55.772;38.224;2022-07-21T14:41:27;2.00;;;0.90;;
58240;SDS011;45058;55.772;38.224;2022-07-21T14:43:53;6.18;;;1.60;;
58240;SDS011;45058;55.772;38.224;2022-07-21T14:46:19;2.50;;;1.02;;
58240;SDS011;45058;55.772;38.224;2022-07-21T14:48:44;2.47;;;0.80;;
58240;SDS011;45058;55.772;38.224;2022-07-21T14:51:11;1.92;;;0.85;;
58240;SDS011;45058;55.772;38.224;2022-07-21T14:53:37;2.50;;;0.90;;
58240;SDS011;45058;55.772;38.224;2022-07-21T14:56:03;4.63;;;1.10;;
58240;SDS011;45058;55.772;38.224;2022-07-21T14:58:29;4.47;;;1.35;;
58240;SDS011;45058;55.772;38.224;2022-07-21T15:00:55;5.18;;;1.00;;
58240;SDS011;45058;55.772;38.224;2022-07-21T15:03:21;1.70;;;0.80;;
58240;SDS011;45058;55.772;38.224;2022-07-21T15:05:47;2.72;;;1.08;;
58240;SDS011;45058;55.772;38.224;2022-07-21T15:08:13;5.40;;;1.10;;